Mishawaka, Indiana
Current Conditions -  °F | °C
As of 12:54 PM on Thursday 23 Oct 2014 (Local Time) from KSBN Reporting Station
Clear Clear  
Wind Chill: 55°   Ceiling: Unl
Heat Index: 55°   Visibility: 10mi
Dew Point: 41°   Wind: 8mph
Humidity: 59%   Direction: 210°SSW
Pressure: 30.23"   Gusts: NA
Location:  41.66°N, 86.18°W
Report Text: KSBN 231654Z 21007KT 10SM CLR 13/05 A3023 RMK AO2 SLP240 T01280050
Loading
Personal Weather Stations






























Interactive Weather Map
Tropical Storm Tracking
New forecast layout! Learn more

10-Day Weather Forecast

Advertisements
Track Severe Weather on mobile